Ang'angxi, China
Current Conditions -  °F | °C
As of 10:00 PM on Thursday 18 Dec 2014 (Local Time) from ZYHB Reporting Station
Clear Clear  
Wind Chill: -16°   Ceiling: Unl
Heat Index:   Visibility: 6mi
Dew Point: -11°   Wind: 9mph
Humidity: 60%   Direction: 130°SE
Pressure: 30.24"   Gusts: NA
Location:  47.15°N, 123.8°E
Report Text: ZYHB 181400Z 13004MPS 100V160 CAVOK M18/M24 Q1024 NOSIG
Loading
Personal Weather Stations






























Interactive Weather Map New forecast layout! Learn more

10-Day Weather Forecast

Advertisements
Track Severe Weather on mobile